sensor_id;sensor_type;location;lat;lon;timestamp;temperature;humidity
4757;DHT22;2392;52.578;13.426;2023-12-04T00:02:22;-2.20;99.90
4757;DHT22;2392;52.578;13.426;2023-12-04T00:04:50;-2.30;99.90
4757;DHT22;2392;52.578;13.426;2023-12-04T00:07:17;-2.30;99.90
4757;DHT22;2392;52.578;13.426;2023-12-04T00:09:44;-2.30;99.90
4757;DHT22;2392;52.578;13.426;2023-12-04T00:12:10;-2.30;99.90
4757;DHT22;2392;52.578;13.426;2023-12-04T00:14:37;-2.40;99.90
4757;DHT22;2392;52.578;13.426;2023-12-04T00:17:04;-2.50;99.90
4757;DHT22;2392;52.578;13.426;2023-12-04T00:19:30;-2.60;99.90
4757;DHT22;2392;52.578;13.426;2023-12-04T00:21:58;-2.60;99.90
4757;DHT22;2392;52.578;13.426;2023-12-04T00:24:25;-2.70;99.90
4757;DHT22;2392;52.578;13.426;2023-12-04T00:26:51;-2.80;99.90
4757;DHT22;2392;52.578;13.426;2023-12-04T00:29:18;-2.90;99.90
4757;DHT22;2392;52.578;13.426;2023-12-04T00:31:45;-2.90;99.90
4757;DHT22;2392;52.578;13.426;2023-12-04T00:34:11;-2.90;99.90
4757;DHT22;2392;52.578;13.426;2023-12-04T00:36:38;-2.90;99.90
4757;DHT22;2392;52.578;13.426;2023-12-04T00:39:06;-2.90;99.90
4757;DHT22;2392;52.578;13.426;2023-12-04T00:41:33;-2.90;99.90
4757;DHT22;2392;52.578;13.426;2023-12-04T00:44:00;-3.00;99.90
4757;DHT22;2392;52.578;13.426;2023-12-04T00:46:26;-2.90;99.90
4757;DHT22;2392;52.578;13.426;2023-12-04T00:48:53;-2.90;99.90
4757;DHT22;2392;52.578;13.426;2023-12-04T00:51:20;-3.00;99.90
4757;DHT22;2392;52.578;13.426;2023-12-04T00:53:46;-3.00;99.90
4757;DHT22;2392;52.578;13.426;2023-12-04T00:56:14;-3.00;99.90
4757;DHT22;2392;52.578;13.426;2023-12-04T00:58:41;-3.10;99.90
4757;DHT22;2392;52.578;13.426;2023-12-04T01:01:08;-3.00;99.90
4757;DHT22;2392;52.578;13.426;2023-12-04T01:03:35;-3.10;99.90
4757;DHT22;2392;52.578;13.426;2023-12-04T01:06:01;-3.20;99.90
4757;DHT22;2392;52.578;13.426;2023-12-04T01:08:28;-3.10;99.90
4757;DHT22;2392;52.578;13.426;2023-12-04T01:10:54;-3.10;99.90
4757;DHT22;2392;52.578;13.426;2023-12-04T01:13:22;-3.10;99.90
4757;DHT22;2392;52.578;13.426;2023-12-04T01:15:49;-3.10;99.90
4757;DHT22;2392;52.578;13.426;2023-12-04T01:18:16;-3.10;99.90
4757;DHT22;2392;52.578;13.426;2023-12-04T01:20:43;-3.10;99.90
4757;DHT22;2392;52.578;13.426;2023-12-04T01:23:10;-3.10;99.90
4757;DHT22;2392;52.578;13.426;2023-12-04T01:25:36;-3.10;99.90
4757;DHT22;2392;52.578;13.426;2023-12-04T01:28:03;-3.10;99.90
4757;DHT22;2392;52.578;13.426;2023-12-04T01:30:31;-3.20;99.90
4757;DHT22;2392;52.578;13.426;2023-12-04T01:32:58;-3.20;99.90
4757;DHT22;2392;52.578;13.426;2023-12-04T01:35:25;-3.20;99.90
4757;DHT22;2392;52.578;13.426;2023-12-04T01:37:52;-3.20;99.90
4757;DHT22;2392;52.578;13.426;2023-12-04T01:40:18;-3.30;99.90
4757;DHT22;2392;52.578;13.426;2023-12-04T01:42:45;-3.20;99.90
4757;DHT22;2392;52.578;13.426;2023-12-04T01:45:12;-3.30;99.90
4757;DHT22;2392;52.578;13.426;2023-12-04T01:47:40;-3.30;99.90
4757;DHT22;2392;52.578;13.426;2023-12-04T01:50:07;-3.40;99.90
4757;DHT22;2392;52.578;13.426;2023-12-04T01:52:35;-3.30;99.90
4757;DHT22;2392;52.578;13.426;2023-12-04T01:55:03;-3.40;99.90
4757;DHT22;2392;52.578;13.426;2023-12-04T01:57:31;-3.40;99.90
4757;DHT22;2392;52.578;13.426;2023-12-04T01:59:58;-3.40;99.90
4757;DHT22;2392;52.578;13.426;2023-12-04T02:02:25;-3.40;99.90
4757;DHT22;2392;52.578;13.426;2023-12-04T02:04:54;-3.30;99.90
4757;DHT22;2392;52.578;13.426;2023-12-04T02:07:22;-3.30;99.90
4757;DHT22;2392;52.578;13.426;2023-12-04T02:09:48;-3.30;99.90
4757;DHT22;2392;52.578;13.426;2023-12-04T02:12:15;-3.20;99.90
4757;DHT22;2392;52.578;13.426;2023-12-04T02:14:42;-3.20;99.90
4757;DHT22;2392;52.578;13.426;2023-12-04T02:17:10;-3.20;99.90
4757;DHT22;2392;52.578;13.426;2023-12-04T02:19:38;-3.20;99.90
4757;DHT22;2392;52.578;13.426;2023-12-04T02:22:06;-3.20;99.90
4757;DHT22;2392;52.578;13.426;2023-12-04T02:24:34;-3.20;99.90
4757;DHT22;2392;52.578;13.426;2023-12-04T02:27:06;-3.10;99.90
4757;DHT22;2392;52.578;13.426;2023-12-04T02:29:39;-3.10;99.90
4757;DHT22;2392;52.578;13.426;2023-12-04T02:32:10;-3.00;99.90
4757;DHT22;2392;52.578;13.426;2023-12-04T02:34:39;-3.00;99.90
4757;DHT22;2392;52.578;13.426;2023-12-04T02:37:08;-3.00;99.90
4757;DHT22;2392;52.578;13.426;2023-12-04T02:39:36;-3.00;99.90
4757;DHT22;2392;52.578;13.426;2023-12-04T02:42:03;-3.10;99.90
4757;DHT22;2392;52.578;13.426;2023-12-04T02:44:30;-3.00;99.90
4757;DHT22;2392;52.578;13.426;2023-12-04T02:46:58;-3.00;99.90
4757;DHT22;2392;52.578;13.426;2023-12-04T02:49:25;-3.10;99.90
4757;DHT22;2392;52.578;13.426;2023-12-04T02:51:51;-3.00;99.90
4757;DHT22;2392;52.578;13.426;2023-12-04T02:54:18;-3.00;99.90
4757;DHT22;2392;52.578;13.426;2023-12-04T02:56:46;-3.00;99.90
4757;DHT22;2392;52.578;13.426;2023-12-04T02:59:13;-3.00;99.90
4757;DHT22;2392;52.578;13.426;2023-12-04T03:01:39;-3.00;99.90
4757;DHT22;2392;52.578;13.426;2023-12-04T03:04:06;-3.00;99.90
4757;DHT22;2392;52.578;13.426;2023-12-04T03:06:33;-3.00;99.90
4757;DHT22;2392;52.578;13.426;2023-12-04T03:08:59;-3.00;99.90
4757;DHT22;2392;52.578;13.426;2023-12-04T03:11:26;-3.00;99.90
4757;DHT22;2392;52.578;13.426;2023-12-04T03:13:54;-3.00;99.90
4757;DHT22;2392;52.578;13.426;2023-12-04T03:16:22;-3.00;99.90
4757;DHT22;2392;52.578;13.426;2023-12-04T03:18:49;-3.00;99.90
4757;DHT22;2392;52.578;13.426;2023-12-04T03:21:15;-3.00;99.90
4757;DHT22;2392;52.578;13.426;2023-12-04T03:23:42;-3.00;99.90
4757;DHT22;2392;52.578;13.426;2023-12-04T03:26:10;-3.10;99.90
4757;DHT22;2392;52.578;13.426;2023-12-04T03:28:38;-3.10;99.90
4757;DHT22;2392;52.578;13.426;2023-12-04T03:31:07;-3.10;99.90
4757;DHT22;2392;52.578;13.426;2023-12-04T03:33:33;-3.10;99.90
4757;DHT22;2392;52.578;13.426;2023-12-04T03:36:00;-3.20;99.90
4757;DHT22;2392;52.578;13.426;2023-12-04T03:38:27;-3.20;99.90
4757;DHT22;2392;52.578;13.426;2023-12-04T03:40:54;-3.20;99.90
4757;DHT22;2392;52.578;13.426;2023-12-04T03:43:21;-3.20;99.90
4757;DHT22;2392;52.578;13.426;2023-12-04T03:45:48;-3.10;99.90
4757;DHT22;2392;52.578;13.426;2023-12-04T03:48:16;-3.10;99.90
4757;DHT22;2392;52.578;13.426;2023-12-04T03:50:42;-3.10;99.90
4757;DHT22;2392;52.578;13.426;2023-12-04T03:53:10;-3.10;99.90
4757;DHT22;2392;52.578;13.426;2023-12-04T03:55:36;-3.10;99.90
4757;DHT22;2392;52.578;13.426;2023-12-04T03:58:03;-3.10;99.90
4757;DHT22;2392;52.578;13.426;2023-12-04T04:00:30;-3.00;99.90
4757;DHT22;2392;52.578;13.426;2023-12-04T04:02:57;-2.90;99.90
4757;DHT22;2392;52.578;13.426;2023-12-04T04:05:25;-2.90;99.90
4757;DHT22;2392;52.578;13.426;2023-12-04T04:07:51;-2.90;99.90
4757;DHT22;2392;52.578;13.426;2023-12-04T04:10:18;-2.80;99.90
4757;DHT22;2392;52.578;13.426;2023-12-04T04:12:44;-2.80;99.90
4757;DHT22;2392;52.578;13.426;2023-12-04T04:15:11;-2.80;99.90
4757;DHT22;2392;52.578;13.426;2023-12-04T04:17:38;-2.70;99.90
4757;DHT22;2392;52.578;13.426;2023-12-04T04:20:06;-2.70;99.90
4757;DHT22;2392;52.578;13.426;2023-12-04T04:22:34;-2.80;99.90
4757;DHT22;2392;52.578;13.426;2023-12-04T04:25:04;-2.80;99.90
4757;DHT22;2392;52.578;13.426;2023-12-04T04:27:31;-2.90;99.90
4757;DHT22;2392;52.578;13.426;2023-12-04T04:29:58;-2.90;99.90
4757;DHT22;2392;52.578;13.426;2023-12-04T04:32:25;-2.90;99.90
4757;DHT22;2392;52.578;13.426;2023-12-04T04:34:51;-3.00;99.90
4757;DHT22;2392;52.578;13.426;2023-12-04T04:37:19;-3.10;99.90
4757;DHT22;2392;52.578;13.426;2023-12-04T04:39:47;-3.10;99.90
4757;DHT22;2392;52.578;13.426;2023-12-04T04:42:14;-3.10;99.90
4757;DHT22;2392;52.578;13.426;2023-12-04T04:44:40;-3.10;99.90
4757;DHT22;2392;52.578;13.426;2023-12-04T04:47:07;-3.10;99.90
4757;DHT22;2392;52.578;13.426;2023-12-04T04:49:34;-3.00;99.90
4757;DHT22;2392;52.578;13.426;2023-12-04T04:52:00;-3.00;99.90
4757;DHT22;2392;52.578;13.426;2023-12-04T04:54:30;-3.00;99.90
4757;DHT22;2392;52.578;13.426;2023-12-04T04:56:58;-2.90;99.90
4757;DHT22;2392;52.578;13.426;2023-12-04T04:59:25;-2.80;99.90
4757;DHT22;2392;52.578;13.426;2023-12-04T05:01:52;-2.80;99.90
4757;DHT22;2392;52.578;13.426;2023-12-04T05:04:19;-2.80;99.90
4757;DHT22;2392;52.578;13.426;2023-12-04T05:06:45;-2.70;99.90
4757;DHT22;2392;52.578;13.426;2023-12-04T05:09:12;-2.70;99.90
4757;DHT22;2392;52.578;13.426;2023-12-04T05:11:39;-2.70;99.90
4757;DHT22;2392;52.578;13.426;2023-12-04T05:14:07;-2.60;99.90
4757;DHT22;2392;52.578;13.426;2023-12-04T05:16:33;-2.60;99.90
4757;DHT22;2392;52.578;13.426;2023-12-04T05:19:00;-2.60;99.90
4757;DHT22;2392;52.578;13.426;2023-12-04T05:21:27;-2.60;99.90
4757;DHT22;2392;52.578;13.426;2023-12-04T05:23:53;-2.60;99.90
4757;DHT22;2392;52.578;13.426;2023-12-04T05:26:20;-2.60;99.90
4757;DHT22;2392;52.578;13.426;2023-12-04T05:28:47;-2.60;99.90
4757;DHT22;2392;52.578;13.426;2023-12-04T05:31:15;-2.60;99.90
4757;DHT22;2392;52.578;13.426;2023-12-04T05:33:41;-2.70;99.90
4757;DHT22;2392;52.578;13.426;2023-12-04T05:36:09;-2.60;99.90
4757;DHT22;2392;52.578;13.426;2023-12-04T05:38:36;-2.60;99.90
4757;DHT22;2392;52.578;13.426;2023-12-04T05:41:03;-2.70;99.90
4757;DHT22;2392;52.578;13.426;2023-12-04T05:43:29;-2.70;99.90
4757;DHT22;2392;52.578;13.426;2023-12-04T05:45:56;-2.70;99.90
4757;DHT22;2392;52.578;13.426;2023-12-04T05:48:24;-2.70;99.90
4757;DHT22;2392;52.578;13.426;2023-12-04T05:50:51;-2.70;99.90
4757;DHT22;2392;52.578;13.426;2023-12-04T05:53:18;-2.70;99.90
4757;DHT22;2392;52.578;13.426;2023-12-04T05:55:46;-2.80;99.90
4757;DHT22;2392;52.578;13.426;2023-12-04T05:58:12;-2.80;99.90
4757;DHT22;2392;52.578;13.426;2023-12-04T06:00:40;-2.80;99.90
4757;DHT22;2392;52.578;13.426;2023-12-04T06:03:06;-2.80;99.90
4757;DHT22;2392;52.578;13.426;2023-12-04T06:05:34;-2.80;99.90
4757;DHT22;2392;52.578;13.426;2023-12-04T06:08:01;-2.80;99.90
4757;DHT22;2392;52.578;13.426;2023-12-04T06:10:27;-2.80;99.90
4757;DHT22;2392;52.578;13.426;2023-12-04T06:12:54;-2.70;99.90
4757;DHT22;2392;52.578;13.426;2023-12-04T06:15:21;-2.70;99.90
4757;DHT22;2392;52.578;13.426;2023-12-04T06:17:47;-2.60;99.90
4757;DHT22;2392;52.578;13.426;2023-12-04T06:20:14;-2.60;99.90
4757;DHT22;2392;52.578;13.426;2023-12-04T06:22:43;-2.50;99.90
4757;DHT22;2392;52.578;13.426;2023-12-04T06:25:11;-2.50;99.90
4757;DHT22;2392;52.578;13.426;2023-12-04T06:27:38;-2.40;99.90
4757;DHT22;2392;52.578;13.426;2023-12-04T06:30:06;-2.40;99.90
4757;DHT22;2392;52.578;13.426;2023-12-04T06:32:34;-2.40;99.90
4757;DHT22;2392;52.578;13.426;2023-12-04T06:35:01;-2.30;99.90
4757;DHT22;2392;52.578;13.426;2023-12-04T06:37:29;-2.30;99.90
4757;DHT22;2392;52.578;13.426;2023-12-04T06:39:59;-2.20;99.90
4757;DHT22;2392;52.578;13.426;2023-12-04T06:42:28;-2.20;99.90
4757;DHT22;2392;52.578;13.426;2023-12-04T06:44:55;-2.10;99.90
4757;DHT22;2392;52.578;13.426;2023-12-04T06:47:22;-2.10;99.90
4757;DHT22;2392;52.578;13.426;2023-12-04T06:49:50;-2.00;99.90
4757;DHT22;2392;52.578;13.426;2023-12-04T06:52:17;-2.00;99.90
4757;DHT22;2392;52.578;13.426;2023-12-04T06:54:44;-2.00;99.90
4757;DHT22;2392;52.578;13.426;2023-12-04T06:57:12;-2.00;99.90
4757;DHT22;2392;52.578;13.426;2023-12-04T06:59:40;-1.90;99.90
4757;DHT22;2392;52.578;13.426;2023-12-04T07:02:06;-1.90;99.90
4757;DHT22;2392;52.578;13.426;2023-12-04T07:04:33;-1.80;99.90
4757;DHT22;2392;52.578;13.426;2023-12-04T07:07:00;-1.80;99.90
4757;DHT22;2392;52.578;13.426;2023-12-04T07:09:30;-1.80;99.90
4757;DHT22;2392;52.578;13.426;2023-12-04T07:11:57;-1.70;99.90
4757;DHT22;2392;52.578;13.426;2023-12-04T07:14:25;-1.70;99.90
4757;DHT22;2392;52.578;13.426;2023-12-04T07:16:51;-1.60;99.90
4757;DHT22;2392;52.578;13.426;2023-12-04T07:19:18;-1.60;99.90
4757;DHT22;2392;52.578;13.426;2023-12-04T07:21:45;-1.60;99.90
4757;DHT22;2392;52.578;13.426;2023-12-04T07:24:14;-1.60;99.90
4757;DHT22;2392;52.578;13.426;2023-12-04T07:26:41;-1.60;99.90
4757;DHT22;2392;52.578;13.426;2023-12-04T07:29:08;-1.60;99.90
4757;DHT22;2392;52.578;13.426;2023-12-04T07:31:37;-1.50;99.90
4757;DHT22;2392;52.578;13.426;2023-12-04T07:34:04;-1.50;99.90
4757;DHT22;2392;52.578;13.426;2023-12-04T07:36:31;-1.50;99.90
4757;DHT22;2392;52.578;13.426;2023-12-04T07:38:57;-1.50;99.90
4757;DHT22;2392;52.578;13.426;2023-12-04T07:41:24;-1.50;99.90
4757;DHT22;2392;52.578;13.426;2023-12-04T07:43:51;-1.50;99.90
4757;DHT22;2392;52.578;13.426;2023-12-04T07:46:17;-1.50;99.90
4757;DHT22;2392;52.578;13.426;2023-12-04T07:48:45;-1.50;99.90
4757;DHT22;2392;52.578;13.426;2023-12-04T07:51:12;-1.50;99.90
4757;DHT22;2392;52.578;13.426;2023-12-04T07:53:39;-1.50;99.90
4757;DHT22;2392;52.578;13.426;2023-12-04T07:56:07;-1.40;99.90
4757;DHT22;2392;52.578;13.426;2023-12-04T07:58:33;-1.40;99.90
4757;DHT22;2392;52.578;13.426;2023-12-04T08:01:00;-1.40;99.90
4757;DHT22;2392;52.578;13.426;2023-12-04T08:03:27;-1.30;99.90
4757;DHT22;2392;52.578;13.426;2023-12-04T08:05:56;-1.30;99.90
4757;DHT22;2392;52.578;13.426;2023-12-04T08:08:23;-1.20;99.90
4757;DHT22;2392;52.578;13.426;2023-12-04T08:10:50;-1.20;99.90
4757;DHT22;2392;52.578;13.426;2023-12-04T08:13:17;-1.20;99.90
4757;DHT22;2392;52.578;13.426;2023-12-04T08:15:44;-1.10;99.90
4757;DHT22;2392;52.578;13.426;2023-12-04T08:18:10;-1.10;99.90
4757;DHT22;2392;52.578;13.426;2023-12-04T08:20:37;-1.10;99.90
4757;DHT22;2392;52.578;13.426;2023-12-04T08:23:05;-0.90;99.90
4757;DHT22;2392;52.578;13.426;2023-12-04T08:25:32;-0.90;99.90
4757;DHT22;2392;52.578;13.426;2023-12-04T08:27:58;-0.80;99.90
4757;DHT22;2392;52.578;13.426;2023-12-04T08:30:26;-0.80;99.90
4757;DHT22;2392;52.578;13.426;2023-12-04T08:32:53;-0.70;99.90
4757;DHT22;2392;52.578;13.426;2023-12-04T08:35:20;-0.60;99.90
4757;DHT22;2392;52.578;13.426;2023-12-04T08:37:47;-0.60;99.90
4757;DHT22;2392;52.578;13.426;2023-12-04T08:40:15;-0.50;99.90
4757;DHT22;2392;52.578;13.426;2023-12-04T08:42:43;-0.40;99.90
4757;DHT22;2392;52.578;13.426;2023-12-04T08:45:10;-0.40;99.90
4757;DHT22;2392;52.578;13.426;2023-12-04T08:47:37;-0.30;99.90
4757;DHT22;2392;52.578;13.426;2023-12-04T08:50:04;-0.30;99.90
4757;DHT22;2392;52.578;13.426;2023-12-04T08:52:31;-0.20;99.90
4757;DHT22;2392;52.578;13.426;2023-12-04T08:54:58;-0.20;99.90
4757;DHT22;2392;52.578;13.426;2023-12-04T08:57:26;-0.10;99.90
4757;DHT22;2392;52.578;13.426;2023-12-04T08:59:53;-0.10;99.90
4757;DHT22;2392;52.578;13.426;2023-12-04T09:02:19;0.00;99.90
4757;DHT22;2392;52.578;13.426;2023-12-04T09:04:46;0.00;99.90
4757;DHT22;2392;52.578;13.426;2023-12-04T09:07:13;0.00;99.90
4757;DHT22;2392;52.578;13.426;2023-12-04T09:09:40;0.10;99.90
4757;DHT22;2392;52.578;13.426;2023-12-04T09:12:07;0.10;99.90
4757;DHT22;2392;52.578;13.426;2023-12-04T09:14:35;0.10;99.90
4757;DHT22;2392;52.578;13.426;2023-12-04T09:17:02;0.10;99.90
4757;DHT22;2392;52.578;13.426;2023-12-04T09:19:30;0.10;99.90
4757;DHT22;2392;52.578;13.426;2023-12-04T09:21:56;0.10;99.90
4757;DHT22;2392;52.578;13.426;2023-12-04T09:24:23;0.10;99.90
4757;DHT22;2392;52.578;13.426;2023-12-04T09:26:50;0.00;99.90
4757;DHT22;2392;52.578;13.426;2023-12-04T09:29:16;0.00;99.90
4757;DHT22;2392;52.578;13.426;2023-12-04T09:31:45;0.00;99.90
4757;DHT22;2392;52.578;13.426;2023-12-04T09:34:12;0.10;99.90
4757;DHT22;2392;52.578;13.426;2023-12-04T09:36:38;0.10;99.90
4757;DHT22;2392;52.578;13.426;2023-12-04T09:39:05;0.10;99.90
4757;DHT22;2392;52.578;13.426;2023-12-04T09:41:32;0.10;99.90
4757;DHT22;2392;52.578;13.426;2023-12-04T09:43:58;0.10;99.90
4757;DHT22;2392;52.578;13.426;2023-12-04T09:46:26;0.10;99.90
4757;DHT22;2392;52.578;13.426;2023-12-04T09:48:55;0.10;99.90
4757;DHT22;2392;52.578;13.426;2023-12-04T09:51:24;0.20;99.90
4757;DHT22;2392;52.578;13.426;2023-12-04T09:53:57;0.20;99.90
4757;DHT22;2392;52.578;13.426;2023-12-04T09:56:25;0.30;99.90
4757;DHT22;2392;52.578;13.426;2023-12-04T09:58:58;0.30;99.90
4757;DHT22;2392;52.578;13.426;2023-12-04T10:01:25;0.30;99.90
4757;DHT22;2392;52.578;13.426;2023-12-04T10:03:52;0.30;99.90
4757;DHT22;2392;52.578;13.426;2023-12-04T10:06:24;0.20;99.90
4757;DHT22;2392;52.578;13.426;2023-12-04T10:08:53;0.30;99.90
4757;DHT22;2392;52.578;13.426;2023-12-04T10:11:20;0.30;99.90
4757;DHT22;2392;52.578;13.426;2023-12-04T10:13:48;0.30;99.90
4757;DHT22;2392;52.578;13.426;2023-12-04T10:16:15;0.40;99.90
4757;DHT22;2392;52.578;13.426;2023-12-04T10:18:56;0.60;99.90
4757;DHT22;2392;52.578;13.426;2023-12-04T10:21:32;0.60;99.90
4757;DHT22;2392;52.578;13.426;2023-12-04T10:23:58;0.60;99.90
4757;DHT22;2392;52.578;13.426;2023-12-04T10:26:25;0.70;99.90
4757;DHT22;2392;52.578;13.426;2023-12-04T10:28:58;0.70;99.90
4757;DHT22;2392;52.578;13.426;2023-12-04T10:31:25;0.80;99.90
4757;DHT22;2392;52.578;13.426;2023-12-04T10:33:52;0.90;99.90
4757;DHT22;2392;52.578;13.426;2023-12-04T10:36:20;1.10;99.90
4757;DHT22;2392;52.578;13.426;2023-12-04T10:38:58;1.10;99.90
4757;DHT22;2392;52.578;13.426;2023-12-04T10:41:25;1.20;99.90
4757;DHT22;2392;52.578;13.426;2023-12-04T10:43:52;1.40;99.90
4757;DHT22;2392;52.578;13.426;2023-12-04T10:46:19;1.50;99.90
4757;DHT22;2392;52.578;13.426;2023-12-04T10:48:47;1.50;99.90
4757;DHT22;2392;52.578;13.426;2023-12-04T10:51:15;1.50;99.90
4757;DHT22;2392;52.578;13.426;2023-12-04T10:53:43;1.50;99.90
4757;DHT22;2392;52.578;13.426;2023-12-04T10:56:18;1.60;99.90
4757;DHT22;2392;52.578;13.426;2023-12-04T10:58:48;1.60;99.90
4757;DHT22;2392;52.578;13.426;2023-12-04T11:01:17;1.60;99.90
4757;DHT22;2392;52.578;13.426;2023-12-04T11:03:47;1.70;99.90
4757;DHT22;2392;52.578;13.426;2023-12-04T11:06:16;1.90;99.90
4757;DHT22;2392;52.578;13.426;2023-12-04T11:08:47;1.90;99.90
4757;DHT22;2392;52.578;13.426;2023-12-04T11:11:24;2.00;99.90
4757;DHT22;2392;52.578;13.426;2023-12-04T11:13:56;2.10;99.90
4757;DHT22;2392;52.578;13.426;2023-12-04T11:16:28;2.20;99.90
4757;DHT22;2392;52.578;13.426;2023-12-04T11:19:00;2.20;99.90
4757;DHT22;2392;52.578;13.426;2023-12-04T11:21:28;2.00;99.90
4757;DHT22;2392;52.578;13.426;2023-12-04T11:23:56;1.90;99.90
4757;DHT22;2392;52.578;13.426;2023-12-04T11:26:25;1.80;99.90
4757;DHT22;2392;52.578;13.426;2023-12-04T11:28:52;1.80;99.90
4757;DHT22;2392;52.578;13.426;2023-12-04T11:31:19;1.70;99.90
4757;DHT22;2392;52.578;13.426;2023-12-04T11:33:46;1.90;99.90
4757;DHT22;2392;52.578;13.426;2023-12-04T11:36:13;1.90;99.90
4757;DHT22;2392;52.578;13.426;2023-12-04T11:38:44;1.90;99.90
4757;DHT22;2392;52.578;13.426;2023-12-04T11:41:15;2.00;99.90
4757;DHT22;2392;52.578;13.426;2023-12-04T11:43:45;2.00;99.90
4757;DHT22;2392;52.578;13.426;2023-12-04T11:46:13;2.10;99.90
4757;DHT22;2392;52.578;13.426;2023-12-04T11:48:39;2.10;99.90
4757;DHT22;2392;52.578;13.426;2023-12-04T11:51:07;2.10;99.90
4757;DHT22;2392;52.578;13.426;2023-12-04T11:53:37;2.20;99.90
4757;DHT22;2392;52.578;13.426;2023-12-04T11:56:09;2.40;99.90
4757;DHT22;2392;52.578;13.426;2023-12-04T11:58:43;2.50;99.90
4757;DHT22;2392;52.578;13.426;2023-12-04T12:01:10;2.60;99.90
4757;DHT22;2392;52.578;13.426;2023-12-04T12:03:37;2.60;99.90
4757;DHT22;2392;52.578;13.426;2023-12-04T12:06:05;2.70;99.90
4757;DHT22;2392;52.578;13.426;2023-12-04T12:08:32;2.70;99.90
4757;DHT22;2392;52.578;13.426;2023-12-04T12:10:59;2.70;99.90
4757;DHT22;2392;52.578;13.426;2023-12-04T12:13:26;2.70;99.90
4757;DHT22;2392;52.578;13.426;2023-12-04T12:15:54;2.70;99.90
4757;DHT22;2392;52.578;13.426;2023-12-04T12:18:24;2.70;99.90
4757;DHT22;2392;52.578;13.426;2023-12-04T12:20:51;2.60;99.90
4757;DHT22;2392;52.578;13.426;2023-12-04T12:23:17;2.40;99.90
4757;DHT22;2392;52.578;13.426;2023-12-04T12:25:45;2.30;99.90
4757;DHT22;2392;52.578;13.426;2023-12-04T12:28:13;2.30;99.90
4757;DHT22;2392;52.578;13.426;2023-12-04T12:30:39;2.30;99.90
4757;DHT22;2392;52.578;13.426;2023-12-04T12:33:09;2.30;99.90
4757;DHT22;2392;52.578;13.426;2023-12-04T12:35:38;2.40;99.90
4757;DHT22;2392;52.578;13.426;2023-12-04T12:38:05;2.40;99.90
4757;DHT22;2392;52.578;13.426;2023-12-04T12:40:32;2.40;99.90
4757;DHT22;2392;52.578;13.426;2023-12-04T12:43:05;2.50;99.90
4757;DHT22;2392;52.578;13.426;2023-12-04T12:45:39;2.40;99.90
4757;DHT22;2392;52.578;13.426;2023-12-04T12:48:06;2.40;99.90
4757;DHT22;2392;52.578;13.426;2023-12-04T12:50:34;2.40;99.90
4757;DHT22;2392;52.578;13.426;2023-12-04T12:53:01;2.30;99.90
4757;DHT22;2392;52.578;13.426;2023-12-04T12:55:28;2.20;99.90
4757;DHT22;2392;52.578;13.426;2023-12-04T12:57:55;2.10;99.90
4757;DHT22;2392;52.578;13.426;2023-12-04T13:00:22;2.00;99.90
4757;DHT22;2392;52.578;13.426;2023-12-04T13:02:52;2.00;99.90
4757;DHT22;2392;52.578;13.426;2023-12-04T13:05:19;2.00;99.90
4757;DHT22;2392;52.578;13.426;2023-12-04T13:07:47;2.00;99.90
4757;DHT22;2392;52.578;13.426;2023-12-04T13:10:14;2.00;99.90
4757;DHT22;2392;52.578;13.426;2023-12-04T13:12:40;2.00;99.90
4757;DHT22;2392;52.578;13.426;2023-12-04T13:15:08;2.00;99.90
4757;DHT22;2392;52.578;13.426;2023-12-04T13:17:36;1.90;99.90
4757;DHT22;2392;52.578;13.426;2023-12-04T13:20:03;1.90;99.90
4757;DHT22;2392;52.578;13.426;2023-12-04T13:22:30;1.90;99.90
4757;DHT22;2392;52.578;13.426;2023-12-04T13:25:00;1.90;99.90
4757;DHT22;2392;52.578;13.426;2023-12-04T13:27:27;1.80;99.90
4757;DHT22;2392;52.578;13.426;2023-12-04T13:29:54;1.80;99.90
4757;DHT22;2392;52.578;13.426;2023-12-04T13:32:21;1.70;99.90
4757;DHT22;2392;52.578;13.426;2023-12-04T13:34:47;1.70;99.90
4757;DHT22;2392;52.578;13.426;2023-12-04T13:37:14;1.70;99.90
4757;DHT22;2392;52.578;13.426;2023-12-04T13:39:41;1.70;99.90
4757;DHT22;2392;52.578;13.426;2023-12-04T13:42:15;1.70;99.90
4757;DHT22;2392;52.578;13.426;2023-12-04T13:44:59;1.60;99.90
4757;DHT22;2392;52.578;13.426;2023-12-04T13:47:26;1.50;99.90
4757;DHT22;2392;52.578;13.426;2023-12-04T13:49:53;1.50;99.90
4757;DHT22;2392;52.578;13.426;2023-12-04T13:52:20;1.40;99.90
4757;DHT22;2392;52.578;13.426;2023-12-04T13:54:48;1.50;99.90
4757;DHT22;2392;52.578;13.426;2023-12-04T13:57:16;1.40;99.90
4757;DHT22;2392;52.578;13.426;2023-12-04T13:59:46;1.40;99.90
4757;DHT22;2392;52.578;13.426;2023-12-04T14:02:13;1.40;99.90
4757;DHT22;2392;52.578;13.426;2023-12-04T14:04:40;1.40;99.90
4757;DHT22;2392;52.578;13.426;2023-12-04T14:07:07;1.40;99.90
4757;DHT22;2392;52.578;13.426;2023-12-04T14:09:34;1.30;99.90
4757;DHT22;2392;52.578;13.426;2023-12-04T14:12:01;1.20;99.90
4757;DHT22;2392;52.578;13.426;2023-12-04T14:14:30;1.20;99.90
4757;DHT22;2392;52.578;13.426;2023-12-04T14:16:58;1.10;99.90
4757;DHT22;2392;52.578;13.426;2023-12-04T14:19:25;1.10;99.90
4757;DHT22;2392;52.578;13.426;2023-12-04T14:21:52;1.10;99.90
4757;DHT22;2392;52.578;13.426;2023-12-04T14:24:18;1.00;99.90
4757;DHT22;2392;52.578;13.426;2023-12-04T14:26:45;1.00;99.90
4757;DHT22;2392;52.578;13.426;2023-12-04T14:29:11;1.00;99.90
4757;DHT22;2392;52.578;13.426;2023-12-04T14:31:40;0.90;99.90
4757;DHT22;2392;52.578;13.426;2023-12-04T14:34:07;0.90;99.90
4757;DHT22;2392;52.578;13.426;2023-12-04T14:36:34;0.90;99.90
4757;DHT22;2392;52.578;13.426;2023-12-04T14:39:02;0.80;99.90
4757;DHT22;2392;52.578;13.426;2023-12-04T14:41:29;0.80;99.90
4757;DHT22;2392;52.578;13.426;2023-12-04T14:43:56;0.80;99.90
4757;DHT22;2392;52.578;13.426;2023-12-04T14:46:23;0.80;99.90
4757;DHT22;2392;52.578;13.426;2023-12-04T14:48:51;0.70;99.90
4757;DHT22;2392;52.578;13.426;2023-12-04T14:51:18;0.70;99.90
4757;DHT22;2392;52.578;13.426;2023-12-04T14:53:44;0.70;99.90
4757;DHT22;2392;52.578;13.426;2023-12-04T14:56:16;0.70;99.90
4757;DHT22;2392;52.578;13.426;2023-12-04T14:58:50;0.70;99.90
4757;DHT22;2392;52.578;13.426;2023-12-04T15:01:46;0.60;99.90
4757;DHT22;2392;52.578;13.426;2023-12-04T15:04:30;0.60;99.90
4757;DHT22;2392;52.578;13.426;2023-12-04T15:07:37;0.60;99.90
4757;DHT22;2392;52.578;13.426;2023-12-04T15:10:35;0.60;99.90
4757;DHT22;2392;52.578;13.426;2023-12-04T15:13:09;0.50;99.90
4757;DHT22;2392;52.578;13.426;2023-12-04T15:16:05;0.50;99.90
4757;DHT22;2392;52.578;13.426;2023-12-04T15:18:51;0.50;99.90
4757;DHT22;2392;52.578;13.426;2023-12-04T15:21:54;0.60;99.90
4757;DHT22;2392;52.578;13.426;2023-12-04T15:24:20;0.50;99.90
4757;DHT22;2392;52.578;13.426;2023-12-04T15:26:47;0.60;99.90
4757;DHT22;2392;52.578;13.426;2023-12-04T15:29:12;0.60;99.90
4757;DHT22;2392;52.578;13.426;2023-12-04T15:31:39;0.60;99.90
4757;DHT22;2392;52.578;13.426;2023-12-04T15:34:05;0.60;99.90
4757;DHT22;2392;52.578;13.426;2023-12-04T15:36:32;0.60;99.90
4757;DHT22;2392;52.578;13.426;2023-12-04T15:38:59;0.60;99.90
4757;DHT22;2392;52.578;13.426;2023-12-04T15:41:26;0.60;99.90
4757;DHT22;2392;52.578;13.426;2023-12-04T15:43:52;0.60;99.90
4757;DHT22;2392;52.578;13.426;2023-12-04T15:46:19;0.60;99.90
4757;DHT22;2392;52.578;13.426;2023-12-04T15:48:47;0.60;99.90
4757;DHT22;2392;52.578;13.426;2023-12-04T15:51:13;0.60;99.90
4757;DHT22;2392;52.578;13.426;2023-12-04T15:53:40;0.70;99.90
4757;DHT22;2392;52.578;13.426;2023-12-04T15:56:08;0.70;99.90
4757;DHT22;2392;52.578;13.426;2023-12-04T15:58:35;0.70;99.90